createdAt,value
2018-09-17T00:01:41.967Z,83.35
2018-09-17T00:06:45.210Z,84.46
2018-09-17T00:11:48.381Z,84.78
2018-09-17T00:16:51.609Z,85.50
2018-09-17T00:21:54.880Z,86.37
2018-09-17T00:26:58.116Z,86.62
2018-09-17T00:32:01.396Z,87.53
2018-09-17T00:37:04.703Z,87.79
2018-09-17T00:42:08.104Z,87.87
2018-09-17T00:47:11.610Z,88.73
2018-09-17T00:52:14.944Z,89.25
2018-09-17T00:57:18.206Z,90.67
2018-09-17T01:02:21.453Z,91.12
2018-09-17T01:07:24.758Z,90.76
2018-09-17T01:12:28.124Z,91.67
2018-09-17T01:17:31.381Z,92.43
2018-09-17T01:22:34.662Z,92.94
2018-09-17T01:27:37.986Z,93.16
2018-09-17T01:32:41.287Z,93.64
2018-09-17T01:37:44.465Z,92.87
2018-09-17T01:42:47.761Z,93.16
2018-09-17T01:47:50.990Z,92.73
2018-09-17T01:52:54.313Z,92.31
2018-09-17T01:57:57.575Z,92.71
2018-09-17T02:03:00.934Z,92.95
2018-09-17T02:08:05.419Z,93.62
2018-09-17T02:13:08.802Z,93.50
2018-09-17T02:18:12.108Z,93.97
2018-09-17T02:23:15.380Z,94.24
2018-09-17T02:28:18.654Z,94.16
2018-09-17T02:33:21.900Z,94.63
2018-09-17T02:38:25.201Z,96.06
2018-09-17T02:43:28.902Z,96.04
2018-09-17T02:48:32.452Z,96.26
2018-09-17T02:53:35.894Z,96.43
2018-09-17T02:58:39.041Z,96.26
2018-09-17T03:03:42.357Z,96.85
2018-09-17T03:08:45.881Z,97.69
2018-09-17T03:13:49.305Z,97.29
2018-09-17T03:18:53.104Z,98.49
2018-09-17T03:23:56.480Z,98.79
2018-09-17T03:28:59.882Z,99.75
2018-09-17T03:34:03.124Z,99.85
2018-09-17T03:39:06.898Z,99.52
2018-09-17T03:44:10.128Z,99.95
2018-09-17T03:49:13.427Z,100.00
2018-09-17T03:54:16.669Z,100.00
2018-09-17T03:59:19.883Z,100.00
2018-09-17T04:04:23.501Z,100.00
2018-09-17T04:09:26.750Z,100.00
2018-09-17T04:14:30.147Z,100.00
2018-09-17T04:19:33.385Z,100.00
2018-09-17T04:24:36.795Z,100.00
2018-09-17T04:29:40.041Z,100.00
2018-09-17T04:34:43.390Z,100.00
2018-09-17T04:39:46.629Z,100.00
2018-09-17T04:44:49.869Z,100.00
2018-09-17T04:49:53.482Z,100.00
2018-09-17T04:54:57.020Z,100.00
2018-09-17T05:00:01.397Z,100.00
2018-09-17T05:05:05.332Z,100.00
2018-09-17T05:10:09.107Z,100.00
2018-09-17T05:15:12.471Z,100.00
2018-09-17T05:20:15.783Z,100.00
2018-09-17T05:25:19.064Z,100.00
2018-09-17T05:30:22.480Z,100.00
2018-09-17T05:35:25.989Z,100.00
2018-09-17T05:40:30.627Z,100.00
2018-09-17T05:45:33.908Z,99.31
2018-09-17T05:50:37.170Z,98.84
2018-09-17T05:55:40.538Z,96.56
2018-09-17T06:00:44.238Z,95.13
2018-09-17T06:05:47.528Z,92.84
2018-09-17T06:10:51.304Z,89.92
2018-09-17T06:15:54.595Z,87.24
2018-09-17T06:20:57.785Z,84.67
2018-09-17T06:26:01.020Z,81.64
2018-09-17T06:31:04.326Z,78.64
2018-09-17T06:36:08.377Z,75.77
2018-09-17T06:41:11.812Z,75.11
2018-09-17T06:46:15.025Z,72.98
2018-09-17T06:51:18.396Z,72.00
2018-09-17T06:56:22.359Z,71.04
2018-09-17T07:01:25.744Z,70.37
2018-09-17T07:06:29.343Z,68.65
2018-09-17T07:11:32.690Z,68.23
2018-09-17T07:16:35.905Z,66.71
2018-09-17T07:21:39.188Z,65.67
2018-09-17T07:26:42.416Z,63.85
2018-09-17T07:31:46.124Z,62.31
2018-09-17T07:36:49.276Z,59.78
2018-09-17T07:41:52.632Z,55.95
2018-09-17T07:46:55.964Z,53.87
2018-09-17T07:51:59.242Z,52.81
2018-09-17T07:57:03.742Z,52.85
2018-09-17T08:02:07.016Z,49.68
2018-09-17T08:07:10.550Z,48.78
2018-09-17T08:12:13.736Z,48.86
2018-09-17T08:17:16.978Z,46.94
2018-09-17T08:22:20.118Z,47.05
2018-09-17T08:27:23.489Z,45.23
2018-09-17T08:32:26.773Z,44.74
2018-09-17T08:37:29.977Z,43.29
2018-09-17T08:42:36.158Z,41.50
2018-09-17T08:47:39.411Z,39.38
2018-09-17T08:52:42.635Z,37.46
2018-09-17T08:57:45.788Z,37.35
2018-09-17T09:02:48.924Z,37.36
2018-09-17T09:07:52.201Z,36.46
2018-09-17T09:12:56.149Z,36.22
2018-09-17T09:17:59.401Z,33.58
2018-09-17T09:23:02.646Z,35.14
2018-09-17T09:28:05.834Z,36.00
2018-09-17T09:33:09.288Z,31.87
2018-09-17T09:38:12.549Z,31.55
2018-09-17T09:43:15.785Z,30.42
2018-09-17T09:48:19.027Z,27.48
2018-09-17T09:53:22.637Z,26.71
2018-09-17T09:58:25.804Z,25.01
2018-09-17T10:03:29.169Z,26.20
2018-09-17T10:08:32.438Z,28.49
2018-09-17T10:13:35.638Z,27.85
2018-09-17T10:18:41.813Z,24.59
2018-09-17T10:23:45.041Z,24.01
2018-09-17T10:28:50.382Z,23.72
2018-09-17T10:33:53.676Z,24.10
2018-09-17T10:39:06.452Z,23.98
2018-09-17T10:44:09.757Z,23.56
2018-09-17T10:49:13.140Z,22.41
2018-09-17T10:54:16.302Z,25.52
2018-09-17T10:59:19.499Z,25.06
2018-09-17T11:04:22.835Z,22.60
2018-09-17T11:09:26.182Z,22.88
2018-09-17T11:14:29.475Z,24.13
2018-09-17T11:19:32.868Z,24.23
2018-09-17T11:24:36.140Z,24.25
2018-09-17T11:29:39.393Z,23.51
2018-09-17T11:34:42.644Z,25.35
2018-09-17T11:39:45.846Z,26.44
2018-09-17T11:44:49.200Z,26.75
2018-09-17T11:49:53.458Z,25.68
2018-09-17T11:54:56.784Z,24.64
2018-09-17T12:00:00.325Z,25.00
2018-09-17T12:05:03.683Z,26.18
2018-09-17T12:10:08.547Z,24.20
2018-09-17T12:15:11.728Z,25.39
2018-09-17T12:20:15.101Z,25.24
2018-09-17T12:25:22.768Z,23.56
2018-09-17T12:30:25.984Z,24.36
2018-09-17T12:35:29.260Z,23.80
2018-09-17T12:40:32.465Z,23.09
2018-09-17T12:45:35.662Z,23.13
2018-09-17T12:50:38.943Z,24.14
2018-09-17T12:55:42.273Z,22.42
2018-09-17T13:00:45.490Z,22.83
2018-09-17T13:05:50.854Z,24.64
2018-09-17T13:10:54.012Z,23.31
2018-09-17T13:15:57.286Z,24.40
2018-09-17T13:21:00.583Z,24.19
2018-09-17T13:26:03.824Z,23.43
2018-09-17T13:31:07.517Z,24.25
2018-09-17T13:36:10.693Z,22.20
2018-09-17T13:41:13.949Z,22.42
2018-09-17T13:46:17.180Z,21.94
2018-09-17T13:51:20.473Z,22.98
2018-09-17T13:56:23.812Z,22.75
2018-09-17T14:01:27.048Z,22.19
2018-09-17T14:06:30.759Z,22.84
2018-09-17T14:11:34.080Z,23.43
2018-09-17T14:16:37.416Z,23.93
2018-09-17T14:21:41.122Z,24.26
2018-09-17T14:26:44.317Z,26.63
2018-09-17T14:31:47.515Z,23.22
2018-09-17T14:36:50.857Z,24.07
2018-09-17T14:41:56.420Z,23.91
2018-09-17T14:46:59.842Z,24.24
2018-09-17T14:52:03.186Z,23.60
2018-09-17T14:57:06.479Z,25.52
2018-09-17T15:02:09.771Z,24.87
2018-09-17T15:07:13.047Z,24.41
2018-09-17T15:12:16.301Z,25.67
2018-09-17T15:17:19.530Z,25.79
2018-09-17T15:22:23.474Z,25.23
2018-09-17T15:27:26.706Z,24.73
2018-09-17T15:32:30.323Z,25.17
2018-09-17T15:37:35.638Z,24.08
2018-09-17T15:42:38.851Z,25.62
2018-09-17T15:47:42.109Z,25.94
2018-09-17T15:52:45.320Z,27.53
2018-09-17T15:57:48.716Z,27.29
2018-09-17T16:02:52.023Z,27.08
2018-09-17T16:07:55.382Z,28.29
2018-09-17T16:12:59.030Z,29.96
2018-09-17T16:18:02.291Z,29.86
2018-09-17T16:23:06.129Z,29.77
2018-09-17T16:28:09.524Z,31.35
2018-09-17T16:33:12.729Z,31.46
2018-09-17T16:38:15.948Z,33.40
2018-09-17T16:43:19.292Z,35.14
2018-09-17T16:48:22.663Z,35.90
2018-09-17T16:53:26.984Z,35.37
2018-09-17T16:58:30.161Z,37.37
2018-09-17T17:03:33.416Z,38.54
2018-09-17T17:08:36.725Z,39.71
2018-09-17T17:13:39.994Z,41.39
2018-09-17T17:18:43.544Z,42.22
2018-09-17T17:23:47.020Z,42.94
2018-09-17T17:28:50.259Z,43.83
2018-09-17T17:33:57.226Z,45.60
2018-09-17T17:39:00.592Z,44.61
2018-09-17T17:44:03.876Z,46.60
2018-09-17T17:49:07.131Z,47.79
2018-09-17T17:54:10.340Z,48.49
2018-09-17T17:59:13.575Z,48.81
2018-09-17T18:04:17.359Z,50.55
2018-09-17T18:09:20.734Z,49.93
2018-09-17T18:14:24.391Z,51.71
2018-09-17T18:19:27.911Z,52.98
2018-09-17T18:24:32.033Z,52.88
2018-09-17T18:29:35.224Z,52.92
2018-09-17T18:34:38.503Z,54.42
2018-09-17T18:39:42.460Z,55.15
2018-09-17T18:44:45.873Z,54.93
2018-09-17T18:49:49.439Z,56.24
2018-09-17T18:54:54.373Z,57.66
2018-09-17T18:59:58.964Z,58.60
2018-09-17T19:05:03.083Z,59.88
2018-09-17T19:10:06.954Z,59.15
2018-09-17T19:15:10.211Z,58.72
2018-09-17T19:20:14.423Z,59.73
2018-09-17T19:25:18.485Z,59.80
2018-09-17T19:30:23.394Z,59.83
2018-09-17T19:35:26.951Z,62.08
2018-09-17T19:40:30.601Z,62.87
2018-09-17T19:45:34.205Z,63.58
2018-09-17T19:50:37.582Z,62.75
2018-09-17T19:55:40.868Z,61.96
2018-09-17T20:00:44.123Z,63.86
2018-09-17T20:06:02.280Z,63.28
2018-09-17T20:11:19.146Z,64.06
2018-09-17T20:16:25.042Z,63.65
2018-09-17T20:21:36.429Z,63.63
2018-09-17T20:26:44.261Z,64.83
2018-09-17T20:31:51.697Z,65.03
2018-09-17T20:37:00.149Z,65.88
2018-09-17T20:42:06.756Z,65.37
2018-09-17T20:47:14.730Z,65.97
2018-09-17T20:52:22.379Z,66.90
2018-09-17T20:57:31.408Z,68.29
2018-09-17T21:02:35.568Z,67.79
2018-09-17T21:07:39.290Z,68.37
2018-09-17T21:12:44.011Z,68.68
2018-09-17T21:17:47.347Z,68.34
2018-09-17T21:22:51.851Z,68.98
2018-09-17T21:27:56.191Z,69.28
2018-09-17T21:33:00.905Z,70.04
2018-09-17T21:38:04.174Z,70.48
2018-09-17T21:43:07.543Z,70.93
2018-09-17T21:48:10.823Z,71.54
2018-09-17T21:53:14.286Z,71.80
2018-09-17T21:58:18.729Z,71.45
2018-09-17T22:03:21.964Z,72.29
2018-09-17T22:08:25.450Z,72.66
2018-09-17T22:13:28.903Z,73.06
2018-09-17T22:18:32.129Z,72.63
2018-09-17T22:23:35.363Z,72.70
2018-09-17T22:28:38.592Z,73.21
2018-09-17T22:33:41.782Z,73.44
2018-09-17T22:38:45.032Z,74.23
2018-09-17T22:43:48.739Z,75.25
2018-09-17T22:48:52.016Z,74.85
2018-09-17T22:53:55.363Z,75.36
2018-09-17T22:58:58.613Z,75.64
2018-09-17T23:04:02.122Z,76.37
2018-09-17T23:09:07.966Z,76.74
2018-09-17T23:14:11.159Z,77.24
2018-09-17T23:19:14.419Z,77.80
2018-09-17T23:24:17.634Z,77.76
2018-09-17T23:29:20.812Z,78.49
2018-09-17T23:34:24.275Z,78.61
2018-09-17T23:39:27.543Z,78.82
2018-09-17T23:44:30.892Z,79.20
2018-09-17T23:49:34.081Z,79.92
2018-09-17T23:54:37.271Z,79.93
2018-09-17T23:59:40.462Z,80.08
